Kelmont East, Nevada
Current Conditions -  °F | °C
As of 5:53 AM on Monday 20 Oct 2014 (Local Time) from KTVL Reporting Station
Clear Clear  
Wind Chill: 45°   Ceiling: Unl
Heat Index: 48°   Visibility: 10mi
Dew Point: 27°   Wind: 6mph
Humidity: 44%   Direction: 190°S
Pressure: 30.02"   Gusts: NA
Location:  39.0164°N, 119.925°W
Report Text: KTVL 201253Z AUTO 19005KT 10SM CLR 09/M03 A3002 RMK AO2 SLP123 T00891028
Loading
Personal Weather Stations






























Interactive Weather Map New forecast layout! Learn more

10-Day Weather Forecast

Advertisements
Track Severe Weather on mobile